Time;durP1;ratioP1;P1;durP2;ratioP2;P2;SDS_P1;SDS_P2;PMS_P1;PMS_P2;Temp;Humidity;BMP_temperature;BMP_pressure;BME280_temperature;BME280_humidity;BME280_pressure;Samples;Min_cycle;Max_cycle;Signal;HPM_P1;HPM_P2
2022/06/08 00:00:36;;;;;;;3.50;1.30;;;;;;;22.12;61.72;100019.28;5032530;28;20526;-61
2022/06/08 00:03:06;;;;;;;1.90;1.00;;;;;;;22.13;61.27;100025.88;5033548;28;20453;-61
2022/06/08 00:05:32;;;;;;;3.17;1.30;;;;;;;22.11;61.15;100023.41;5033664;28;20282;-61
2022/06/08 00:07:57;;;;;;;4.80;1.30;;;;;;;22.12;61.28;100022.16;5033695;28;20475;-62
2022/06/08 00:10:23;;;;;;;4.00;1.60;;;;;;;22.11;61.24;100026.28;5033709;28;20267;-62
2022/06/08 00:12:48;;;;;;;2.10;1.20;;;;;;;22.11;61.55;100017.66;5036084;28;20208;-61
2022/06/08 00:15:13;;;;;;;3.23;1.40;;;;;;;22.11;61.22;100016.81;5033512;28;20176;-61
2022/06/08 00:17:39;;;;;;;1.93;1.10;;;;;;;22.11;61.56;100008.19;5057708;28;20175;-61
2022/06/08 00:20:05;;;;;;;6.27;1.20;;;;;;;22.10;61.22;100006.56;5058226;28;20196;-61
2022/06/08 00:22:31;;;;;;;3.20;1.70;;;;;;;22.10;61.59;100013.16;5034710;28;20194;-62
2022/06/08 00:24:56;;;;;;;3.20;1.30;;;;;;;22.09;61.64;100005.75;5038122;28;20506;-61
2022/06/08 00:27:22;;;;;;;2.20;1.30;;;;;;;22.09;61.24;100007.81;5032210;28;20192;-61
2022/06/08 00:29:47;;;;;;;4.07;1.57;;;;;;;22.09;61.41;100000.00;5031851;28;20177;-61
2022/06/08 00:32:12;;;;;;;5.53;1.70;;;;;;;22.07;61.40;99993.84;5050047;28;20221;-61
2022/06/08 00:34:38;;;;;;;3.80;1.40;;;;;;;22.08;61.67;99983.97;5051564;28;20172;-61
2022/06/08 00:37:04;;;;;;;4.20;1.60;;;;;;;22.08;61.65;99988.91;5051478;28;20172;-61
2022/06/08 00:39:29;;;;;;;5.53;1.50;;;;;;;22.07;61.67;99987.28;5051727;28;20171;-61
2022/06/08 00:41:57;;;;;;;2.77;1.43;;;;;;;22.08;61.59;99988.91;5053089;28;20187;-61
2022/06/08 00:44:26;;;;;;;2.10;1.30;;;;;;;22.08;61.23;99980.28;5051581;28;20689;-61
2022/06/08 00:46:53;;;;;;;4.30;1.40;;;;;;;22.08;61.10;99988.91;5049930;28;20477;-61
2022/06/08 00:49:30;;;;;;;3.90;1.33;;;;;;;22.06;61.44;99977.00;5031830;28;20462;-61
2022/06/08 00:51:56;;;;;;;2.90;1.60;;;;;;;22.06;61.55;99985.63;5015339;28;20956;-61
2022/06/08 00:54:50;;;;;;;6.70;1.73;;;;;;;22.05;61.69;99975.34;5040054;28;20513;-61
2022/06/08 00:57:30;;;;;;;4.03;1.87;;;;;;;22.04;61.37;99974.56;5034452;28;20683;-61
2022/06/08 00:59:59;;;;;;;2.67;1.50;;;;;;;22.04;61.25;99973.72;5032783;28;20418;-61
2022/06/08 01:02:25;;;;;;;3.43;1.43;;;;;;;22.03;61.56;99970.00;5031797;28;20888;-61
2022/06/08 01:04:50;;;;;;;4.90;1.40;;;;;;;22.04;61.09;99971.69;5032725;28;20425;-61
2022/06/08 01:07:20;;;;;;;3.17;1.53;;;;;;;22.03;61.07;99972.09;5032400;28;20247;-61
2022/06/08 01:09:45;;;;;;;3.13;1.37;;;;;;;22.03;61.48;99974.97;5032320;28;20184;-61
2022/06/08 01:12:13;;;;;;;4.47;1.87;;;;;;;22.02;61.11;99971.25;5032279;28;20455;-62
2022/06/08 01:14:39;;;;;;;4.23;1.53;;;;;;;22.02;61.55;99971.25;5032538;28;20592;-62
2022/06/08 01:17:10;;;;;;;2.43;1.30;;;;;;;22.02;61.17;99964.69;5046179;28;20425;-61
2022/06/08 01:19:40;;;;;;;2.60;1.43;;;;;;;22.01;61.46;99966.75;5072257;28;20424;-62
2022/06/08 01:22:06;;;;;;;3.27;1.50;;;;;;;22.01;61.39;99966.75;5072443;28;20767;-62
2022/06/08 01:24:32;;;;;;;4.33;1.50;;;;;;;22.02;61.11;99956.88;5053880;28;20849;-62
2022/06/08 01:27:12;;;;;;;2.33;1.17;;;;;;;22.01;61.19;99966.75;5032293;28;20482;-62
2022/06/08 01:30:02;;;;;;;3.20;1.47;;;;;;;22.01;61.24;99965.91;5032064;28;20227;-62
2022/06/08 01:32:36;;;;;;;3.87;1.70;;;;;;;22.00;60.89;99973.72;5032203;28;20455;-62
2022/06/08 01:35:02;;;;;;;3.03;1.60;;;;;;;21.99;61.10;99966.34;5014866;28;20416;-62
2022/06/08 01:38:01;;;;;;;5.47;1.77;;;;;;;21.98;60.82;99964.69;5032105;28;20417;-62
2022/06/08 01:41:19;;;;;;;6.40;1.70;;;;;;;21.98;61.04;99967.56;5032112;28;20176;-62
2022/06/08 01:44:16;;;;;;;2.43;1.10;;;;;;;21.98;60.93;99961.81;5030556;28;20803;-62
2022/06/08 01:47:02;;;;;;;2.87;1.53;;;;;;;21.98;60.71;99956.06;5030742;28;20407;-62
2022/06/08 01:49:41;;;;;;;5.60;1.30;;;;;;;21.98;61.09;99955.25;5031058;28;20469;-61
2022/06/08 01:52:24;;;;;;;3.90;1.67;;;;;;;21.97;60.59;99950.75;5031849;28;20513;-61
2022/06/08 01:55:31;;;;;;;4.10;1.80;;;;;;;21.96;61.03;99941.28;5044286;28;20520;-61
2022/06/08 01:58:25;;;;;;;3.33;1.50;;;;;;;21.96;60.41;99941.28;5050473;28;20421;-61
2022/06/08 02:00:56;;;;;;;8.13;1.63;;;;;;;21.95;60.81;99936.78;5050809;28;20434;-61
2022/06/08 02:03:47;;;;;;;3.23;1.70;;;;;;;21.95;60.52;99936.78;5034233;28;20394;-61
2022/06/08 02:06:15;;;;;;;4.33;1.47;;;;;;;21.95;60.84;99935.94;5050939;28;20473;-62
2022/06/08 02:09:01;;;;;;;5.43;1.83;;;;;;;21.94;60.27;99934.31;5051354;28;20467;-61
2022/06/08 02:11:33;;;;;;;3.00;1.50;;;;;;;21.93;60.66;99924.84;5038823;28;20474;-61
2022/06/08 02:14:18;;;;;;;4.30;1.80;;;;;;;21.92;60.60;99923.22;5032701;28;20749;-61
2022/06/08 02:16:54;;;;;;;3.90;1.63;;;;;;;21.93;60.40;99921.97;5039354;28;20753;-61
2022/06/08 02:19:27;;;;;;;4.47;1.67;;;;;;;21.92;60.89;99917.47;5069874;28;20460;-61
2022/06/08 02:21:55;;;;;;;3.30;1.50;;;;;;;21.92;60.34;99920.34;5054557;28;20406;-61
2022/06/08 02:24:25;;;;;;;3.80;1.77;;;;;;;21.92;60.24;99908.84;5042475;28;20848;-61
2022/06/08 02:27:18;;;;;;;3.10;1.73;;;;;;;21.93;60.56;99916.22;5029513;28;20423;-61
2022/06/08 02:30:08;;;;;;;4.00;1.70;;;;;;;21.91;60.01;99904.34;5030135;28;20668;-61
2022/06/08 02:35:27;;;;;;;2.63;1.53;;;;;;;21.92;60.50;99905.97;5029708;28;20417;-61
2022/06/08 02:37:54;;;;;;;4.70;1.40;;;;;;;21.92;60.60;99905.97;5028370;28;20407;-61
2022/06/08 02:40:28;;;;;;;3.00;1.50;;;;;;;21.92;59.96;99903.09;5028428;28;20433;-61
2022/06/08 02:43:06;;;;;;;3.27;1.70;;;;;;;21.92;60.18;99899.41;5011732;28;20799;-61
2022/06/08 02:45:35;;;;;;;3.00;1.23;;;;;;;21.91;60.43;99895.72;5028161;28;20758;-61
2022/06/08 02:48:02;;;;;;;3.53;2.00;;;;;;;21.91;59.98;99898.59;5032436;28;20418;-61
2022/06/08 02:50:28;;;;;;;3.00;1.67;;;;;;;21.90;60.10;99905.56;5049918;28;20446;-62
2022/06/08 02:53:28;;;;;;;4.07;1.80;;;;;;;21.90;60.27;99899.00;5040608;28;20485;-62
2022/06/08 02:56:02;;;;;;;4.40;1.60;;;;;;;21.89;60.11;99895.31;5029309;28;20431;-62
2022/06/08 02:58:30;;;;;;;2.93;1.70;;;;;;;21.89;60.31;99901.06;5029599;28;20779;-61
2022/06/08 03:01:01;;;;;;;3.67;1.47;;;;;;;21.88;59.88;99882.16;5029402;28;20461;-61
2022/06/08 03:03:33;;;;;;;5.90;1.63;;;;;;;21.88;59.91;99887.91;5035124;28;20415;-61
2022/06/08 03:06:02;;;;;;;4.40;1.90;;;;;;;21.88;59.95;99887.91;5017002;28;20506;-61
2022/06/08 03:08:33;;;;;;;2.53;1.40;;;;;;;21.87;59.82;99879.72;5033587;28;20779;-61
2022/06/08 03:11:00;;;;;;;3.10;1.73;;;;;;;21.87;59.75;99874.78;5016912;28;20415;-61
2022/06/08 03:13:28;;;;;;;3.50;1.57;;;;;;;21.87;60.20;99871.91;5032592;28;20426;-61
2022/06/08 03:16:01;;;;;;;3.20;1.70;;;;;;;21.87;60.06;99873.97;5015202;28;20925;-61
2022/06/08 03:18:26;;;;;;;4.47;2.00;;;;;;;21.87;59.68;99877.66;5069484;28;20425;-62
2022/06/08 03:20:52;;;;;;;3.47;1.63;;;;;;;21.87;60.08;99874.78;5070930;28;20471;-62
2022/06/08 03:23:18;;;;;;;3.57;1.60;;;;;;;21.87;60.21;99873.97;5034739;28;20255;-62
2022/06/08 03:25:44;;;;;;;3.13;1.63;;;;;;;21.87;59.57;99877.66;5052514;28;20433;-62
2022/06/08 03:28:12;;;;;;;5.53;2.03;;;;;;;21.86;59.74;99873.13;5052699;28;20662;-62
2022/06/08 03:30:37;;;;;;;6.93;1.47;;;;;;;21.87;59.60;99874.78;5053142;28;20225;-62
2022/06/08 03:33:03;;;;;;;4.03;1.70;;;;;;;21.86;59.67;99875.19;5054417;28;20450;-61
2022/06/08 03:35:28;;;;;;;3.87;1.83;;;;;;;21.85;59.53;99865.75;5054196;28;20222;-61
2022/06/08 03:37:54;;;;;;;4.90;1.60;;;;;;;21.86;59.47;99870.25;5054218;28;20175;-62
2022/06/08 03:40:19;;;;;;;5.37;2.07;;;;;;;21.86;59.68;99875.19;5054250;28;20635;-62
2022/06/08 03:42:44;;;;;;;2.73;1.60;;;;;;;21.86;59.37;99881.75;5054085;28;20172;-62
2022/06/08 03:45:12;;;;;;;3.07;1.60;;;;;;;21.85;59.47;99880.13;5054578;28;20164;-61
2022/06/08 03:47:43;;;;;;;3.00;1.73;;;;;;;21.85;59.96;99882.16;5053961;28;20282;-61
2022/06/08 03:50:11;;;;;;;3.77;1.73;;;;;;;21.84;59.31;99887.13;5053762;28;20426;-61
2022/06/08 03:52:38;;;;;;;6.07;2.20;;;;;;;21.84;59.52;99887.13;5052479;28;20444;-61
2022/06/08 03:55:07;;;;;;;5.23;1.60;;;;;;;21.84;59.23;99872.75;5054140;28;20418;-61
2022/06/08 03:57:32;;;;;;;4.57;1.60;;;;;;;21.83;59.50;99873.94;5052523;28;20493;-61
2022/06/08 04:00:00;;;;;;;4.63;1.50;;;;;;;21.83;59.58;99862.47;5052481;28;20425;-61
2022/06/08 04:02:26;;;;;;;4.47;1.20;;;;;;;21.82;59.54;99863.69;5052406;28;20183;-61
2022/06/08 04:04:51;;;;;;;3.10;1.73;;;;;;;21.83;59.58;99855.91;5053914;28;20504;-61
2022/06/08 04:07:16;;;;;;;4.63;1.70;;;;;;;21.83;59.80;99856.72;5053385;28;20227;-61
2022/06/08 04:09:42;;;;;;;3.80;1.80;;;;;;;21.82;59.44;99860.81;5053701;28;20168;-61
2022/06/08 04:12:08;;;;;;;2.60;1.40;;;;;;;21.82;59.72;99855.06;5052365;28;20200;-61
2022/06/08 04:14:33;;;;;;;6.40;1.37;;;;;;;21.82;59.58;99857.16;5046241;28;20663;-61
2022/06/08 04:17:01;;;;;;;3.07;1.60;;;;;;;21.83;59.66;99853.84;5047116;28;20406;-61
2022/06/08 04:19:27;;;;;;;2.33;1.03;;;;;;;21.81;59.14;99862.06;5072423;28;20190;-62
2022/06/08 04:21:52;;;;;;;4.03;1.60;;;;;;;21.82;59.47;99855.06;5072249;28;20928;-61
2022/06/08 04:24:18;;;;;;;4.73;1.87;;;;;;;21.81;59.12;99864.09;5055455;28;20180;-61
2022/06/08 04:26:43;;;;;;;2.40;1.40;;;;;;;21.80;59.07;99859.59;5029870;28;20204;-61
2022/06/08 04:29:09;;;;;;;3.10;1.70;;;;;;;21.81;59.55;99864.09;5040747;28;20184;-62
2022/06/08 04:31:35;;;;;;;2.20;1.50;;;;;;;21.81;59.12;99870.69;5044748;28;20199;-62
2022/06/08 04:34:02;;;;;;;2.30;1.47;;;;;;;21.82;59.59;99877.25;5050887;28;20203;-62
2022/06/08 04:36:27;;;;;;;3.70;1.63;;;;;;;21.81;59.07;99876.44;5051277;28;20627;-61
2022/06/08 04:38:53;;;;;;;3.90;1.60;;;;;;;21.81;59.51;99869.84;5051412;28;20492;-61
2022/06/08 04:41:18;;;;;;;3.57;1.40;;;;;;;21.80;59.57;99866.19;5052554;28;20172;-62
2022/06/08 04:43:44;;;;;;;5.47;1.60;;;;;;;21.80;59.07;99866.19;5052766;28;20176;-62
2022/06/08 04:46:15;;;;;;;4.43;1.30;;;;;;;21.80;59.41;99869.06;5052939;28;20172;-62
2022/06/08 04:48:41;;;;;;;3.83;1.80;;;;;;;21.81;59.06;99852.59;5052904;28;20249;-61
2022/06/08 04:51:08;;;;;;;2.63;1.73;;;;;;;21.81;59.12;99852.59;5052490;28;20454;-61
2022/06/08 04:53:34;;;;;;;4.47;1.60;;;;;;;21.80;58.97;99854.69;5050804;28;20757;-62
2022/06/08 04:55:59;;;;;;;8.70;1.43;;;;;;;21.79;59.49;99855.91;5035318;28;20521;-61
2022/06/08 04:58:26;;;;;;;3.10;1.60;;;;;;;21.79;59.33;99857.97;5032677;28;20203;-61
2022/06/08 05:00:52;;;;;;;3.50;1.60;;;;;;;21.80;58.77;99850.97;5032427;28;20250;-63
2022/06/08 05:03:17;;;;;;;3.40;1.63;;;;;;;21.77;58.91;99852.63;5032745;28;20486;-61
2022/06/08 05:05:43;;;;;;;4.90;1.57;;;;;;;21.79;59.20;99850.19;5032500;28;20671;-62
2022/06/08 05:08:08;;;;;;;3.80;1.70;;;;;;;21.77;59.00;99849.75;5032701;28;20187;-62
2022/06/08 05:10:35;;;;;;;5.70;1.80;;;;;;;21.79;59.29;99853.06;5032767;28;20191;-62
2022/06/08 05:13:00;;;;;;;3.30;1.50;;;;;;;21.82;58.86;99852.19;5031258;28;20714;-62
2022/06/08 05:15:30;;;;;;;4.30;1.50;;;;;;;21.86;59.04;99850.16;5032569;28;20420;-62
2022/06/08 05:17:56;;;;;;;2.87;1.53;;;;;;;21.80;58.79;99857.56;5045996;28;20198;-61
2022/06/08 05:20:22;;;;;;;6.50;1.30;;;;;;;21.83;58.94;99839.47;5034003;28;20777;-61
2022/06/08 05:22:48;;;;;;;11.73;4.00;;;;;;;22.03;61.10;99831.22;5047354;28;20534;-61
2022/06/08 05:25:17;;;;;;;38.30;7.53;;;;;;;22.23;62.04;99838.13;5042546;28;20187;-61
2022/06/08 05:27:42;;;;;;;23.47;5.43;;;;;;;22.49;61.77;99831.84;5030951;28;20168;-62
2022/06/08 05:30:10;;;;;;;30.07;5.33;;;;;;;22.55;61.79;99839.63;5032376;28;20467;-62
2022/06/08 05:32:36;;;;;;;14.93;3.03;;;;;;;22.40;61.40;99832.28;5030352;28;20211;-61
2022/06/08 05:35:01;;;;;;;15.03;3.30;;;;;;;22.34;61.38;99831.09;5033841;28;20430;-61
2022/06/08 05:37:26;;;;;;;15.93;3.20;;;;;;;22.27;60.53;99836.06;5038919;28;20452;-61
2022/06/08 05:39:52;;;;;;;10.40;2.90;;;;;;;22.23;60.42;99823.75;5050274;28;20172;-61
2022/06/08 05:42:17;;;;;;;13.83;2.47;;;;;;;22.23;59.93;99830.28;5038302;28;20230;-61
2022/06/08 05:44:43;;;;;;;7.40;1.93;;;;;;;22.23;59.28;99829.50;5029679;28;20510;-61
2022/06/08 05:47:08;;;;;;;15.60;2.20;;;;;;;22.13;58.75;99818.84;5030877;28;20246;-61
2022/06/08 05:49:34;;;;;;;5.43;2.53;;;;;;;22.15;59.45;99817.19;5030082;28;20183;-60
2022/06/08 05:52:01;;;;;;;7.73;2.10;;;;;;;22.19;59.39;99823.75;5030191;28;20291;-62
2022/06/08 05:54:28;;;;;;;8.43;2.10;;;;;;;22.19;59.26;99817.19;5036287;28;20435;-62
2022/06/08 05:56:54;;;;;;;4.83;2.10;;;;;;;22.18;59.51;99815.53;5030182;28;20586;-62
2022/06/08 05:59:19;;;;;;;4.50;2.00;;;;;;;22.21;59.30;99806.91;5032692;28;20999;-62
2022/06/08 06:01:45;;;;;;;9.23;2.53;;;;;;;22.21;59.35;99806.91;5030303;28;20427;-62
2022/06/08 06:04:11;;;;;;;9.20;2.53;;;;;;;22.20;59.17;99807.31;5033507;28;20253;-61
2022/06/08 06:06:38;;;;;;;10.70;1.90;;;;;;;22.20;58.70;99795.81;5029932;28;20652;-61
2022/06/08 06:09:03;;;;;;;6.03;1.80;;;;;;;22.21;58.70;99795.41;5033961;28;20180;-61
2022/06/08 06:11:29;;;;;;;6.07;1.87;;;;;;;22.22;59.06;99793.34;5035687;28;20884;-61
2022/06/08 06:13:56;;;;;;;5.67;1.90;;;;;;;22.18;58.88;99789.66;5041635;28;20219;-61
2022/06/08 06:16:22;;;;;;;5.13;1.57;;;;;;;22.17;58.41;99788.84;5043709;28;20852;-61
2022/06/08 06:18:47;;;;;;;5.63;1.93;;;;;;;22.12;59.07;99783.50;5047575;28;20238;-61
2022/06/08 06:21:17;;;;;;;6.33;1.87;;;;;;;22.17;58.37;99785.16;5030899;28;20172;-61
2022/06/08 06:23:42;;;;;;;6.30;2.30;;;;;;;22.26;60.06;99789.22;5046064;28;20196;-61
2022/06/08 06:26:08;;;;;;;7.70;2.40;;;;;;;22.25;59.62;99784.69;5049472;28;20982;-61
2022/06/08 06:28:33;;;;;;;8.80;2.20;;;;;;;22.25;60.13;99787.56;5047930;28;20194;-60
2022/06/08 06:30:59;;;;;;;6.53;2.17;;;;;;;22.25;59.86;99784.69;5049312;28;20289;-61
2022/06/08 06:33:24;;;;;;;9.03;1.80;;;;;;;22.24;60.15;99790.88;5031438;28;20604;-61
2022/06/08 06:35:50;;;;;;;7.13;2.00;;;;;;;22.22;60.13;99790.47;5049502;28;20194;-61
2022/06/08 06:38:15;;;;;;;5.33;1.60;;;;;;;22.21;59.71;99785.94;5045455;28;20173;-60
2022/06/08 06:40:40;;;;;;;5.63;1.80;;;;;;;22.18;59.43;99781.84;5029286;28;20184;-61
2022/06/08 06:43:06;;;;;;;3.80;1.80;;;;;;;22.13;59.42;99779.41;5030101;28;20191;-61
2022/06/08 06:45:31;;;;;;;9.93;2.20;;;;;;;22.08;58.97;99776.97;5029418;28;20652;-61
2022/06/08 06:47:57;;;;;;;5.67;2.00;;;;;;;22.04;58.69;99778.22;5029590;28;20164;-60
2022/06/08 06:50:25;;;;;;;5.70;1.70;;;;;;;22.02;58.52;99778.63;5029293;28;20576;-60
2022/06/08 06:52:50;;;;;;;12.87;2.37;;;;;;;21.99;58.42;99765.13;5028376;28;20208;-61
2022/06/08 06:55:24;;;;;;;8.30;1.70;;;;;;;22.05;59.33;99760.56;5044430;28;20861;-61
2022/06/08 06:57:50;;;;;;;4.73;1.93;;;;;;;22.14;59.10;99760.09;5049280;28;20389;-61
2022/06/08 07:00:16;;;;;;;9.03;2.37;;;;;;;22.09;58.65;99763.41;5029340;28;20438;-61
2022/06/08 07:02:42;;;;;;;6.73;2.03;;;;;;;22.08;59.12;99764.66;5029438;28;20226;-62
2022/06/08 07:05:11;;;;;;;11.00;1.87;;;;;;;22.12;59.56;99763.38;5046731;28;20809;-61
2022/06/08 07:07:37;;;;;;;5.27;1.80;;;;;;;22.05;58.81;99757.69;5048103;28;20228;-61
2022/06/08 07:10:02;;;;;;;4.27;1.70;;;;;;;22.03;59.41;99765.91;5048644;28;20568;-61
2022/06/08 07:12:28;;;;;;;8.10;2.10;;;;;;;22.05;60.00;99757.69;5026803;28;20195;-61
2022/06/08 07:14:53;;;;;;;4.80;1.60;;;;;;;22.01;59.42;99748.25;5034420;28;20184;-61
2022/06/08 07:17:19;;;;;;;6.47;1.70;;;;;;;22.01;59.94;99754.00;5041642;28;20178;-61
2022/06/08 07:19:44;;;;;;;5.90;1.63;;;;;;;21.98;59.60;99745.41;5045487;28;20179;-62
2022/06/08 07:22:10;;;;;;;9.80;2.07;;;;;;;21.96;58.27;99751.56;5046851;28;20238;-61
2022/06/08 07:24:36;;;;;;;8.90;1.90;;;;;;;21.93;59.21;99748.72;5045045;28;20776;-62
2022/06/08 07:27:02;;;;;;;4.40;1.80;;;;;;;22.03;58.40;99745.78;5028194;28;20431;-61
2022/06/08 07:29:28;;;;;;;3.50;1.60;;;;;;;22.03;58.02;99750.72;5039789;28;20187;-61
2022/06/08 07:31:53;;;;;;;6.40;2.03;;;;;;;22.02;58.27;99749.88;5048758;28;20458;-61
2022/06/08 07:34:19;;;;;;;7.90;2.03;;;;;;;22.06;59.45;99747.00;5048649;28;20171;-61
2022/06/08 07:36:45;;;;;;;8.70;2.03;;;;;;;22.07;58.43;99749.44;5041911;28;20187;-61
2022/06/08 07:39:10;;;;;;;6.40;1.93;;;;;;;22.05;58.62;99745.34;5049202;28;20184;-61
2022/06/08 07:41:36;;;;;;;3.73;1.63;;;;;;;22.06;58.15;99744.13;5050436;28;20241;-61
2022/06/08 07:44:01;;;;;;;10.77;2.37;;;;;;;22.07;58.29;99735.06;5050221;28;20184;-61
2022/06/08 07:46:29;;;;;;;7.63;2.30;;;;;;;22.08;58.21;99728.09;5047232;28;20627;-61
2022/06/08 07:51:39;;;;;;;7.63;1.40;;;;;;;22.12;57.77;99728.88;5051948;28;20448;-61
2022/06/08 07:54:04;;;;;;;7.73;2.30;;;;;;;22.12;57.65;99730.97;5052097;28;20434;-61
2022/06/08 07:56:30;;;;;;;5.03;1.43;;;;;;;22.11;58.11;99723.56;5051994;28;20272;-61
2022/06/08 07:58:55;;;;;;;7.43;1.40;;;;;;;22.10;57.86;99722.75;5050883;28;20184;-61
2022/06/08 08:01:20;;;;;;;4.20;1.40;;;;;;;22.09;57.94;99726.88;5052151;28;20178;-61
2022/06/08 08:03:46;;;;;;;4.30;1.63;;;;;;;22.10;57.89;99714.13;5052252;28;20219;-61
2022/06/08 08:06:11;;;;;;;6.37;1.40;;;;;;;22.09;57.54;99712.50;5051279;28;20231;-61
2022/06/08 08:08:38;;;;;;;5.47;1.63;;;;;;;22.09;57.84;99715.38;5034532;28;20180;-61
2022/06/08 08:11:04;;;;;;;4.73;1.70;;;;;;;22.09;57.68;99709.63;5033516;28;20184;-61
2022/06/08 08:13:30;;;;;;;3.60;1.50;;;;;;;22.07;58.01;99706.31;5034109;28;20419;-61
2022/06/08 08:15:55;;;;;;;6.47;1.97;;;;;;;22.08;57.38;99707.97;5033366;28;20429;-61
2022/06/08 08:18:21;;;;;;;3.60;1.60;;;;;;;22.11;58.07;99706.31;5061743;28;20180;-61
2022/06/08 08:20:46;;;;;;;8.00;2.17;;;;;;;22.09;57.53;99705.91;5042851;28;20599;-61
2022/06/08 08:23:12;;;;;;;5.20;2.00;;;;;;;22.08;57.73;99702.22;5053530;28;20504;-61
2022/06/08 08:25:37;;;;;;;4.40;1.30;;;;;;;22.06;57.86;99701.81;5034138;28;20483;-61
2022/06/08 08:28:03;;;;;;;6.60;1.60;;;;;;;22.07;58.14;99705.53;5052017;28;20179;-61
2022/06/08 08:30:29;;;;;;;4.63;1.63;;;;;;;22.07;57.76;99694.03;5053470;28;20627;-61
2022/06/08 08:32:54;;;;;;;3.03;1.40;;;;;;;22.07;57.76;99694.81;5053135;28;20210;-61
2022/06/08 08:35:21;;;;;;;6.10;1.80;;;;;;;22.06;57.44;99675.13;5053225;28;20433;-61
2022/06/08 08:37:47;;;;;;;6.23;1.37;;;;;;;22.06;57.98;99675.13;5053499;28;20698;-61
2022/06/08 08:40:31;;;;;;;4.50;1.80;;;;;;;22.07;57.72;99676.78;5053031;28;20480;-61
2022/06/08 08:42:57;;;;;;;6.23;1.37;;;;;;;22.07;58.05;99677.56;5053048;28;20164;-61
2022/06/08 08:45:23;;;;;;;3.30;1.70;;;;;;;22.08;57.64;99672.66;5052395;28;20504;-61
2022/06/08 08:48:09;;;;;;;7.73;1.53;;;;;;;22.06;57.64;99664.44;5051065;28;20183;-61
2022/06/08 08:50:44;;;;;;;4.67;1.30;;;;;;;22.06;57.72;99664.44;5033245;28;20207;-61
2022/06/08 08:53:16;;;;;;;3.90;1.30;;;;;;;22.06;57.35;99652.13;5033686;28;20480;-61
2022/06/08 08:55:48;;;;;;;6.13;1.60;;;;;;;22.07;57.40;99656.66;5030718;28;20518;-61
2022/06/08 08:58:16;;;;;;;4.03;1.70;;;;;;;22.05;57.51;99650.50;5030843;28;20423;-61
2022/06/08 09:00:57;;;;;;;5.93;1.70;;;;;;;22.05;57.44;99653.38;5030008;28;20438;-61
2022/06/08 09:03:40;;;;;;;7.50;1.97;;;;;;;22.06;57.21;99650.06;5039262;28;20430;-61
2022/06/08 09:06:19;;;;;;;5.67;1.50;;;;;;;22.07;57.20;99642.28;5016467;28;20478;-61
2022/06/08 09:08:50;;;;;;;3.17;1.73;;;;;;;22.07;57.44;99634.44;5032710;28;20426;-61
2022/06/08 09:11:17;;;;;;;5.53;1.73;;;;;;;22.06;57.35;99641.44;5030838;28;20399;-61
2022/06/08 09:14:11;;;;;;;5.10;1.87;;;;;;;22.07;57.26;99640.19;5030952;28;20429;-61
2022/06/08 09:16:39;;;;;;;6.50;1.80;;;;;;;22.06;57.87;99629.13;5036241;28;20435;-61
2022/06/08 09:19:26;;;;;;;3.90;1.73;;;;;;;22.06;57.57;99626.25;5070917;28;20891;-61
2022/06/08 09:21:55;;;;;;;5.27;1.40;;;;;;;22.07;57.23;99625.84;5072173;28;20417;-61
2022/06/08 09:24:28;;;;;;;4.40;1.53;;;;;;;22.08;56.88;99615.97;5054833;28;20431;-61
2022/06/08 09:27:11;;;;;;;9.83;1.80;;;;;;;22.09;57.15;99611.88;5032181;28;20523;-61
2022/06/08 09:29:58;;;;;;;4.27;1.40;;;;;;;22.08;56.89;99610.22;5032423;28;20498;-61
2022/06/08 09:32:37;;;;;;;9.03;2.30;;;;;;;22.10;56.92;99604.88;5029666;28;20992;-62
2022/06/08 09:35:28;;;;;;;12.53;2.10;;;;;;;22.09;56.97;99609.00;5030600;28;20936;-61
2022/06/08 09:37:56;;;;;;;5.63;2.10;;;;;;;22.09;56.35;99603.25;5029563;28;20462;-61
2022/06/08 09:40:38;;;;;;;4.93;1.57;;;;;;;22.12;56.33;99601.59;5033915;28;20472;-61
2022/06/08 09:43:34;;;;;;;5.10;1.50;;;;;;;22.09;56.32;99606.13;5032173;28;20400;-61
2022/06/08 09:46:22;;;;;;;4.47;1.20;;;;;;;22.13;55.92;99604.00;5031924;28;20419;-61
2022/06/08 09:52:24;;;;;;;4.53;1.40;;;;;;;22.12;56.64;99588.00;5030529;28;20482;-61
2022/06/08 09:54:49;;;;;;;4.80;1.50;;;;;;;22.13;56.38;99581.00;5029289;28;20922;-61
2022/06/08 09:57:16;;;;;;;6.30;1.60;;;;;;;22.11;56.74;99580.63;5032256;28;20429;-61
2022/06/08 10:00:00;;;;;;;3.73;1.30;;;;;;;22.12;56.52;99582.25;5033204;28;20583;-61
2022/06/08 10:02:34;;;;;;;4.53;1.30;;;;;;;22.13;57.25;99578.13;5030003;28;20774;-61
2022/06/08 10:05:18;;;;;;;4.17;1.40;;;;;;;22.15;56.87;99569.09;5014862;28;20462;-61
2022/06/08 10:07:55;;;;;;;2.97;1.37;;;;;;;22.15;56.42;99572.81;5029509;28;20450;-61
2022/06/08 10:10:38;;;;;;;2.13;1.17;;;;;;;22.16;56.44;99564.97;5028033;28;20779;-61
2022/06/08 10:13:18;;;;;;;5.10;1.90;;;;;;;22.15;56.87;99563.34;5036815;28;20472;-61
2022/06/08 10:15:58;;;;;;;6.83;1.50;;;;;;;22.19;56.16;99559.22;5048094;28;20442;-61
2022/06/08 10:18:31;;;;;;;5.90;1.17;;;;;;;22.16;55.95;99562.94;5067830;28;20475;-61
2022/06/08 10:21:19;;;;;;;3.73;1.23;;;;;;;22.19;56.21;99552.63;5030330;28;20442;-61
2022/06/08 10:24:06;;;;;;;5.37;1.53;;;;;;;22.18;56.03;99551.81;5031075;28;20447;-61
2022/06/08 10:26:35;;;;;;;2.77;1.40;;;;;;;22.19;55.92;99553.47;5031250;28;20438;-62
2022/06/08 10:29:21;;;;;;;3.43;1.10;;;;;;;22.18;55.83;99542.38;5048427;28;20422;-61
2022/06/08 10:32:06;;;;;;;7.13;1.50;;;;;;;22.15;56.63;99535.41;5049707;28;20449;-61
2022/06/08 10:34:33;;;;;;;2.90;1.10;;;;;;;22.18;56.37;99530.88;5050062;28;20418;-61
2022/06/08 10:37:04;;;;;;;3.33;1.17;;;;;;;22.14;56.25;99536.66;5033358;28;20453;-61
2022/06/08 10:39:33;;;;;;;5.03;1.30;;;;;;;22.19;55.80;99530.47;5050991;28;20418;-62
2022/06/08 10:44:55;;;;;;;3.50;1.10;;;;;;;22.20;56.22;99526.34;5050926;28;20829;-61
2022/06/08 10:47:28;;;;;;;3.93;1.10;;;;;;;22.22;55.33;99525.91;5032873;28;20426;-61
2022/06/08 10:50:15;;;;;;;4.30;1.50;;;;;;;22.21;55.34;99522.22;5050809;28;20184;-61
2022/06/08 10:52:47;;;;;;;5.13;1.47;;;;;;;22.22;55.82;99518.09;5049165;28;20545;-61
2022/06/08 10:55:19;;;;;;;3.00;1.20;;;;;;;22.22;55.73;99520.97;5032742;28;20486;-61
2022/06/08 10:57:50;;;;;;;5.07;1.37;;;;;;;22.20;55.93;99511.97;5029948;28;20460;-61
2022/06/08 11:00:18;;;;;;;3.17;1.10;;;;;;;22.21;55.66;99519.34;5029813;28;20425;-61
2022/06/08 11:03:04;;;;;;;5.70;1.70;;;;;;;22.24;55.75;99511.91;5029567;28;20425;-61
2022/06/08 11:05:44;;;;;;;4.60;1.50;;;;;;;22.23;54.83;99508.22;5036405;28;20435;-61
2022/06/08 11:08:16;;;;;;;5.83;1.47;;;;;;;22.24;55.54;99503.28;5029481;28;20930;-61
2022/06/08 11:10:44;;;;;;;5.13;1.37;;;;;;;22.23;55.36;99508.22;5030663;28;20422;-61
2022/06/08 11:13:25;;;;;;;5.40;0.90;;;;;;;22.24;56.04;99503.28;5030282;28;20451;-61
2022/06/08 11:16:35;;;;;;;3.63;1.20;;;;;;;22.23;56.00;99513.16;5030763;28;20519;-61
2022/06/08 11:19:04;;;;;;;3.33;1.20;;;;;;;22.22;55.13;99500.84;5036381;28;20426;-61
2022/06/08 11:21:51;;;;;;;5.03;1.10;;;;;;;22.23;55.63;99495.91;5045220;28;20930;-61
2022/06/08 11:24:37;;;;;;;3.87;1.20;;;;;;;22.22;55.32;99492.22;5034283;28;20435;-61
2022/06/08 11:27:11;;;;;;;4.20;1.20;;;;;;;22.21;55.46;99499.22;5033192;28;20433;-61
2022/06/08 11:29:59;;;;;;;3.60;1.00;;;;;;;22.21;56.02;99493.47;5034754;28;20418;-61
2022/06/08 11:32:34;;;;;;;4.80;1.33;;;;;;;22.22;55.35;99489.34;5034160;28;20537;-61
2022/06/08 11:35:14;;;;;;;4.00;1.50;;;;;;;22.24;55.00;99497.53;5034510;28;20505;-61
2022/06/08 11:38:02;;;;;;;4.40;1.10;;;;;;;22.24;54.91;99486.88;5034191;28;20526;-62
2022/06/08 11:40:32;;;;;;;3.10;1.20;;;;;;;22.21;54.29;99481.97;5035376;28;20403;-61
2022/06/08 11:43:13;;;;;;;3.33;1.20;;;;;;;22.22;54.14;99489.34;5032700;28;20569;-61
2022/06/08 11:45:42;;;;;;;4.00;1.33;;;;;;;22.23;53.84;99478.66;5033218;28;20413;-61
2022/06/08 11:48:18;;;;;;;3.57;1.37;;;;;;;22.25;53.87;99477.00;5032821;28;20500;-61
2022/06/08 11:50:44;;;;;;;7.30;1.40;;;;;;;22.23;53.46;99467.97;5032401;28;20858;-61
2022/06/08 11:53:32;;;;;;;4.97;1.30;;;;;;;22.22;53.54;99474.97;5032702;28;20449;-61
2022/06/08 11:56:16;;;;;;;5.50;1.60;;;;;;;22.23;53.62;99467.16;5033994;28;20430;-61
2022/06/08 11:58:47;;;;;;;4.10;1.47;;;;;;;22.24;53.18;99469.63;5033861;28;20410;-61
2022/06/08 12:01:18;;;;;;;5.50;1.43;;;;;;;22.23;53.75;99467.97;5032655;28;20719;-61